Bowler, Wisconsin
Current Conditions -  °F | °C
As of 5:35 AM on Saturday 25 Oct 2014 (Local Time) from KCLI Reporting Station
Clear Clear  
Wind Chill: 52°   Ceiling: Unl
Heat Index: 52°   Visibility: 7mi
Dew Point: 50°   Wind: 7mph
Humidity: 94%   Direction: 260°W
Pressure: 29.82"   Gusts: NA
Location:  44.86°N, 88.98°W
Report Text: KCLI 251035Z AUTO 26006KT 7SM CLR 11/10 A2982 RMK AO2
Loading
Personal Weather Stations






























Interactive Weather Map
Tropical Storm Tracking
New forecast layout! Learn more

10-Day Weather Forecast

Advertisements
Track Severe Weather on mobile